Time;durP1;ratioP1;P1;durP2;ratioP2;P2;SDS_P1;SDS_P2;PMS_P1;PMS_P2;Temp;Humidity;BMP_temperature;BMP_pressure;BME280_temperature;BME280_humidity;BME280_pressure;Samples;Min_cycle;Max_cycle;Signal;HPM_P1;HPM_P2
2021/03/02 00:00:04;;;;;;;8.90;4.90;;;;;;;;;;5092752;28;20082;-14
2021/03/02 00:02:30;;;;;;;7.38;4.50;;;;;;;;;;5092344;28;20032;-14
2021/03/02 00:04:56;;;;;;;12.55;5.55;;;;;;;;;;5090061;28;20479;-13
2021/03/02 00:07:22;;;;;;;12.05;5.78;;;;;;;;;;5072161;28;20036;-14
2021/03/02 00:09:47;;;;;;;7.05;4.80;;;;;;;;;;5071995;28;20063;-14
2021/03/02 00:12:13;;;;;;;7.32;5.15;;;;;;;;;;5072026;28;20108;-14
2021/03/02 00:14:38;;;;;;;7.63;4.53;;;;;;;;;;5071924;28;20513;-14
2021/03/02 00:17:16;;;;;;;8.70;4.95;;;;;;;;;;5071893;28;20032;-14
2021/03/02 00:19:45;;;;;;;11.80;5.47;;;;;;;;;;5071926;28;20472;-13
2021/03/02 00:22:31;;;;;;;6.32;4.30;;;;;;;;;;5071700;28;20094;-14
2021/03/02 00:24:57;;;;;;;10.00;5.13;;;;;;;;;;5071406;28;20411;-14
2021/03/02 00:27:23;;;;;;;8.93;5.28;;;;;;;;;;5072173;28;20440;-14
2021/03/02 00:29:49;;;;;;;6.10;3.00;;;;;;;;;;5071736;28;20064;-15
2021/03/02 00:32:17;;;;;;;8.77;5.53;;;;;;;;;;5072029;28;20023;-14
2021/03/02 00:34:43;;;;;;;7.65;4.75;;;;;;;;;;5071787;28;20025;-15
2021/03/02 00:37:08;;;;;;;10.77;6.15;;;;;;;;;;5071732;28;20031;-14
2021/03/02 00:39:33;;;;;;;12.35;5.60;;;;;;;;;;5071828;28;20029;-15
2021/03/02 00:41:59;;;;;;;8.20;5.15;;;;;;;;;;5070225;28;20025;-14
2021/03/02 00:44:24;;;;;;;5.38;3.60;;;;;;;;;;5072048;28;20032;-14
2021/03/02 00:46:50;;;;;;;5.85;3.45;;;;;;;;;;5070757;28;20028;-14
2021/03/02 00:49:15;;;;;;;16.50;5.57;;;;;;;;;;5075991;28;20058;-13
2021/03/02 00:51:41;;;;;;;7.85;4.95;;;;;;;;;;5074287;28;20064;-14
2021/03/02 00:54:06;;;;;;;8.18;5.80;;;;;;;;;;5075601;28;20082;-13
2021/03/02 00:56:32;;;;;;;12.23;4.85;;;;;;;;;;5074138;28;20021;-14
2021/03/02 00:58:58;;;;;;;9.73;5.43;;;;;;;;;;5074214;28;20021;-15
2021/03/02 01:01:23;;;;;;;8.45;3.65;;;;;;;;;;5075283;28;20071;-15
2021/03/02 01:03:50;;;;;;;6.90;3.15;;;;;;;;;;5074128;28;20028;-14
2021/03/02 01:06:17;;;;;;;8.40;4.05;;;;;;;;;;5074126;28;20062;-14
2021/03/02 01:08:43;;;;;;;8.43;4.38;;;;;;;;;;5073793;28;20020;-14
2021/03/02 01:11:09;;;;;;;9.13;4.88;;;;;;;;;;5075281;28;20028;-13
2021/03/02 01:13:35;;;;;;;8.10;4.22;;;;;;;;;;5075482;28;20081;-14
2021/03/02 01:16:01;;;;;;;6.65;2.65;;;;;;;;;;5075003;28;20519;-14
2021/03/02 01:18:26;;;;;;;9.13;3.47;;;;;;;;;;5075510;28;20103;-15
2021/03/02 01:20:52;;;;;;;7.40;4.20;;;;;;;;;;5074758;28;20051;-14
2021/03/02 01:23:17;;;;;;;8.77;4.30;;;;;;;;;;5073778;28;20048;-15
2021/03/02 01:25:43;;;;;;;7.22;4.45;;;;;;;;;;5073659;28;20466;-15
2021/03/02 01:28:08;;;;;;;10.60;5.45;;;;;;;;;;5075165;28;20107;-14
2021/03/02 01:30:34;;;;;;;9.45;4.72;;;;;;;;;;5074858;28;20017;-14
2021/03/02 01:32:59;;;;;;;8.63;4.95;;;;;;;;;;5075079;28;20104;-14
2021/03/02 01:35:24;;;;;;;7.95;4.55;;;;;;;;;;5074872;28;20448;-14
2021/03/02 01:37:50;;;;;;;8.90;4.72;;;;;;;;;;5074884;28;20033;-15
2021/03/02 01:40:16;;;;;;;9.27;5.65;;;;;;;;;;5074676;28;20020;-14
2021/03/02 01:42:43;;;;;;;9.13;5.30;;;;;;;;;;5074602;28;20094;-14
2021/03/02 01:45:10;;;;;;;7.65;3.20;;;;;;;;;;5074907;28;20024;-14
2021/03/02 01:47:36;;;;;;;9.27;4.35;;;;;;;;;;5074566;28;20062;-13
2021/03/02 01:50:03;;;;;;;8.60;5.13;;;;;;;;;;5074543;28;20042;-14
2021/03/02 01:52:28;;;;;;;7.47;4.55;;;;;;;;;;5074438;28;20131;-14
2021/03/02 01:54:54;;;;;;;8.98;5.07;;;;;;;;;;5073164;28;20107;-13
2021/03/02 01:57:19;;;;;;;10.32;5.35;;;;;;;;;;5074405;28;20039;-14
2021/03/02 01:59:45;;;;;;;8.43;5.22;;;;;;;;;;5073968;28;20019;-15
2021/03/02 02:02:12;;;;;;;7.43;4.32;;;;;;;;;;5074326;28;20040;-14
2021/03/02 02:04:43;;;;;;;10.57;5.22;;;;;;;;;;5074100;28;20515;-14
2021/03/02 02:07:14;;;;;;;8.13;5.40;;;;;;;;;;5074575;28;20040;-15
2021/03/02 02:09:42;;;;;;;7.47;4.47;;;;;;;;;;5074198;28;20029;-14
2021/03/02 02:12:08;;;;;;;8.57;5.65;;;;;;;;;;5074118;28;20425;-14
2021/03/02 02:14:50;;;;;;;9.88;5.72;;;;;;;;;;5074172;28;20037;-14
2021/03/02 02:17:34;;;;;;;8.80;4.77;;;;;;;;;;5074330;28;20042;-13
2021/03/02 02:20:01;;;;;;;9.18;5.53;;;;;;;;;;5074080;28;20094;-13
2021/03/02 02:22:30;;;;;;;11.07;4.82;;;;;;;;;;5074239;28;20040;-15
2021/03/02 02:24:56;;;;;;;6.72;4.35;;;;;;;;;;5073827;28;20601;-15
2021/03/02 02:27:21;;;;;;;5.72;4.07;;;;;;;;;;5073791;28;20020;-16
2021/03/02 02:29:47;;;;;;;7.78;4.93;;;;;;;;;;5073737;28;20158;-15
2021/03/02 02:32:13;;;;;;;9.57;4.75;;;;;;;;;;5072606;28;20367;-15
2021/03/02 02:34:39;;;;;;;8.68;4.53;;;;;;;;;;5073670;28;20418;-14
2021/03/02 02:37:04;;;;;;;8.35;4.97;;;;;;;;;;5073662;28;20025;-14
2021/03/02 02:39:31;;;;;;;11.85;5.65;;;;;;;;;;5072345;28;20390;-12
2021/03/02 02:41:56;;;;;;;10.38;4.82;;;;;;;;;;5071948;28;20024;-14
2021/03/02 02:44:24;;;;;;;6.13;3.70;;;;;;;;;;5072270;28;20107;-14
2021/03/02 02:46:50;;;;;;;9.02;4.80;;;;;;;;;;5073478;28;20066;-14
2021/03/02 02:49:16;;;;;;;9.85;4.80;;;;;;;;;;5073467;28;20107;-14
2021/03/02 02:51:41;;;;;;;7.82;4.88;;;;;;;;;;5073596;28;20454;-14
2021/03/02 02:54:07;;;;;;;9.00;4.43;;;;;;;;;;5072857;28;20028;-14
2021/03/02 02:56:35;;;;;;;8.13;5.35;;;;;;;;;;5073239;28;20024;-14
2021/03/02 02:59:04;;;;;;;10.23;5.72;;;;;;;;;;5072008;28;20108;-17
2021/03/02 03:01:32;;;;;;;5.85;2.83;;;;;;;;;;5072134;28;20440;-15
2021/03/02 03:03:59;;;;;;;8.63;4.78;;;;;;;;;;5071855;28;20036;-14
2021/03/02 03:06:26;;;;;;;7.43;4.70;;;;;;;;;;5072897;28;20024;-15
2021/03/02 03:08:52;;;;;;;7.85;5.15;;;;;;;;;;5072144;28;20025;-13
2021/03/02 03:11:18;;;;;;;8.02;5.35;;;;;;;;;;5072325;28;20026;-14
2021/03/02 03:13:45;;;;;;;7.40;5.50;;;;;;;;;;5072850;28;20052;-14
2021/03/02 03:16:11;;;;;;;12.75;5.53;;;;;;;;;;5072863;28;20158;-14
2021/03/02 03:18:48;;;;;;;8.30;4.57;;;;;;;;;;5072191;28;20029;-14
2021/03/02 03:21:14;;;;;;;9.40;4.97;;;;;;;;;;5072380;28;20150;-15
2021/03/02 03:23:41;;;;;;;10.40;5.40;;;;;;;;;;5072663;28;20471;-16
2021/03/02 03:26:07;;;;;;;11.00;5.78;;;;;;;;;;5072622;28;20033;-16
2021/03/02 03:28:33;;;;;;;13.35;6.22;;;;;;;;;;5072648;28;20023;-14
2021/03/02 03:30:58;;;;;;;11.07;5.10;;;;;;;;;;5072698;28;20107;-15
2021/03/02 03:33:24;;;;;;;8.77;4.80;;;;;;;;;;5071971;28;20468;-13
2021/03/02 03:35:51;;;;;;;10.63;6.63;;;;;;;;;;5071105;28;20382;-15
2021/03/02 03:38:16;;;;;;;7.95;4.63;;;;;;;;;;5072471;28;20029;-15
2021/03/02 03:40:42;;;;;;;6.82;4.30;;;;;;;;;;5072342;28;20024;-14
2021/03/02 03:43:07;;;;;;;9.65;5.60;;;;;;;;;;5070999;28;20020;-12
2021/03/02 03:45:33;;;;;;;12.70;5.05;;;;;;;;;;5072339;28;20029;-13
2021/03/02 03:47:58;;;;;;;8.50;5.07;;;;;;;;;;5070824;28;20024;-13
2021/03/02 03:50:24;;;;;;;8.77;5.53;;;;;;;;;;5072336;28;20021;-14
2021/03/02 03:52:58;;;;;;;9.50;6.30;;;;;;;;;;5072221;28;20074;-15
2021/03/02 03:55:27;;;;;;;9.80;5.95;;;;;;;;;;5072415;28;20024;-14
2021/03/02 03:57:52;;;;;;;10.40;5.90;;;;;;;;;;5071914;28;20021;-15
2021/03/02 04:00:18;;;;;;;8.40;5.07;;;;;;;;;;5072114;28;20021;-14
2021/03/02 04:02:44;;;;;;;6.53;3.85;;;;;;;;;;5071747;28;20051;-14
2021/03/02 04:05:11;;;;;;;7.75;4.97;;;;;;;;;;5072076;28;20078;-15
2021/03/02 04:07:36;;;;;;;12.60;6.60;;;;;;;;;;5071962;28;20013;-13
2021/03/02 04:10:03;;;;;;;13.13;6.18;;;;;;;;;;5070916;28;20033;-14
2021/03/02 04:12:38;;;;;;;9.77;5.35;;;;;;;;;;5072352;28;20025;-15
2021/03/02 04:15:08;;;;;;;11.60;5.50;;;;;;;;;;5070492;28;20112;-14
2021/03/02 04:17:35;;;;;;;13.95;5.30;;;;;;;;;;5071997;28;20024;-13
2021/03/02 04:20:00;;;;;;;10.88;5.53;;;;;;;;;;5072084;28;20080;-14
2021/03/02 04:22:26;;;;;;;8.73;5.97;;;;;;;;;;5071605;28;20548;-16
2021/03/02 04:24:51;;;;;;;10.82;6.65;;;;;;;;;;5071874;28;20037;-15
2021/03/02 04:27:16;;;;;;;9.65;5.32;;;;;;;;;;5070641;28;20115;-15
2021/03/02 04:29:42;;;;;;;7.28;5.13;;;;;;;;;;5072035;28;20116;-14
2021/03/02 04:32:07;;;;;;;9.55;5.28;;;;;;;;;;5072133;28;20494;-15
2021/03/02 04:34:33;;;;;;;10.73;4.57;;;;;;;;;;5070546;28;20025;-14
2021/03/02 04:36:58;;;;;;;9.13;5.35;;;;;;;;;;5071757;28;20032;-15
2021/03/02 04:39:23;;;;;;;9.57;5.43;;;;;;;;;;5071870;28;20487;-14
2021/03/02 04:41:49;;;;;;;7.80;4.57;;;;;;;;;;5071544;28;20029;-14
2021/03/02 04:44:14;;;;;;;8.80;6.20;;;;;;;;;;5071756;28;20063;-15
2021/03/02 04:46:40;;;;;;;11.98;7.55;;;;;;;;;;5071693;28;20474;-15
2021/03/02 04:49:05;;;;;;;11.73;6.07;;;;;;;;;;5071773;28;20067;-13
2021/03/02 04:51:30;;;;;;;9.88;5.47;;;;;;;;;;5071725;28;20112;-13
2021/03/02 04:53:56;;;;;;;10.80;5.65;;;;;;;;;;5071652;28;20033;-15
2021/03/02 04:56:21;;;;;;;10.55;6.90;;;;;;;;;;5070203;28;20066;-14
2021/03/02 04:58:46;;;;;;;13.13;5.60;;;;;;;;;;5071938;28;20070;-14
2021/03/02 05:01:12;;;;;;;8.95;5.65;;;;;;;;;;5071591;28;20033;-15
2021/03/02 05:03:37;;;;;;;11.02;5.80;;;;;;;;;;5071526;28;20017;-14
2021/03/02 05:06:03;;;;;;;16.25;6.18;;;;;;;;;;5071525;28;20455;-13
2021/03/02 05:08:28;;;;;;;9.90;5.55;;;;;;;;;;5071638;28;20394;-14
2021/03/02 05:10:54;;;;;;;9.65;5.63;;;;;;;;;;5071616;28;20483;-14
2021/03/02 05:13:19;;;;;;;10.05;5.72;;;;;;;;;;5071598;28;20060;-14
2021/03/02 05:15:44;;;;;;;13.57;5.22;;;;;;;;;;5071546;28;20016;-14
2021/03/02 05:18:10;;;;;;;7.88;4.80;;;;;;;;;;5071397;28;20020;-14
2021/03/02 05:20:35;;;;;;;10.10;5.90;;;;;;;;;;5071267;28;20395;-14
2021/03/02 05:23:01;;;;;;;12.30;5.60;;;;;;;;;;5071615;28;20086;-14
2021/03/02 05:25:26;;;;;;;8.27;5.50;;;;;;;;;;5071609;28;20021;-14
2021/03/02 05:27:51;;;;;;;11.65;6.55;;;;;;;;;;5069800;28;20029;-14
2021/03/02 05:30:17;;;;;;;9.38;5.47;;;;;;;;;;5071347;28;20027;-14
2021/03/02 05:32:42;;;;;;;12.15;7.75;;;;;;;;;;5071715;28;20029;-12
2021/03/02 05:35:08;;;;;;;11.52;6.35;;;;;;;;;;5074895;28;20081;-15
2021/03/02 05:37:33;;;;;;;12.18;6.05;;;;;;;;;;5074867;28;20103;-12
2021/03/02 05:39:59;;;;;;;11.05;6.60;;;;;;;;;;5074951;28;20031;-14
2021/03/02 05:42:26;;;;;;;15.68;6.35;;;;;;;;;;5073350;28;20028;-14
2021/03/02 05:44:51;;;;;;;11.48;5.45;;;;;;;;;;5074876;28;20039;-14
2021/03/02 05:47:17;;;;;;;12.32;5.97;;;;;;;;;;5074684;28;20028;-14
2021/03/02 05:49:43;;;;;;;9.95;5.95;;;;;;;;;;5074598;28;20634;-14
2021/03/02 05:52:12;;;;;;;10.93;6.30;;;;;;;;;;5073371;28;20047;-15
2021/03/02 05:54:38;;;;;;;9.65;5.82;;;;;;;;;;5074395;28;20020;-14
2021/03/02 05:57:04;;;;;;;9.05;5.47;;;;;;;;;;5074446;28;20035;-14
2021/03/02 05:59:29;;;;;;;10.30;5.50;;;;;;;;;;5074485;28;20371;-14
2021/03/02 06:01:55;;;;;;;11.60;5.35;;;;;;;;;;5074291;28;20040;-14
2021/03/02 06:04:20;;;;;;;13.32;6.68;;;;;;;;;;5074445;28;20020;-14
2021/03/02 06:06:46;;;;;;;11.82;6.72;;;;;;;;;;5072809;28;20033;-14
2021/03/02 06:09:11;;;;;;;9.77;5.60;;;;;;;;;;5074268;28;20459;-13
2021/03/02 06:11:37;;;;;;;12.35;7.13;;;;;;;;;;5074039;28;20024;-14
2021/03/02 06:14:19;;;;;;;9.00;4.68;;;;;;;;;;5072900;28;20021;-15
2021/03/02 06:16:48;;;;;;;10.23;6.03;;;;;;;;;;5073905;28;20054;-14
2021/03/02 06:19:14;;;;;;;10.90;6.45;;;;;;;;;;5074158;28;20044;-13
2021/03/02 06:21:40;;;;;;;8.35;4.63;;;;;;;;;;5072215;28;20110;-13
2021/03/02 06:24:05;;;;;;;10.38;5.90;;;;;;;;;;5074077;28;20411;-14
2021/03/02 06:26:31;;;;;;;12.20;5.32;;;;;;;;;;5073879;28;20036;-14
2021/03/02 06:28:57;;;;;;;9.80;5.53;;;;;;;;;;5073985;28;20028;-14
2021/03/02 06:31:30;;;;;;;12.05;6.28;;;;;;;;;;5073803;28;20028;-14
2021/03/02 06:34:10;;;;;;;8.68;5.38;;;;;;;;;;5073751;28;20103;-14
2021/03/02 06:36:36;;;;;;;10.20;5.60;;;;;;;;;;5073960;28;20025;-13
2021/03/02 06:39:21;;;;;;;12.23;6.20;;;;;;;;;;5073950;28;20021;-13
2021/03/02 06:41:47;;;;;;;6.20;3.70;;;;;;;;;;5073414;28;20055;-15
2021/03/02 06:44:13;;;;;;;11.07;6.38;;;;;;;;;;5073506;28;20459;-14
2021/03/02 06:46:39;;;;;;;9.85;6.00;;;;;;;;;;5073398;28;20043;-13
2021/03/02 06:49:05;;;;;;;9.70;5.15;;;;;;;;;;5073745;28;20020;-13
2021/03/02 06:51:35;;;;;;;11.60;6.32;;;;;;;;;;5073446;28;20489;-13
2021/03/02 06:54:02;;;;;;;11.82;7.03;;;;;;;;;;5071911;28;20356;-14
2021/03/02 06:56:28;;;;;;;8.18;4.53;;;;;;;;;;5073404;28;20036;-13
2021/03/02 06:59:12;;;;;;;9.55;5.43;;;;;;;;;;5073590;28;20047;-12
2021/03/02 07:01:39;;;;;;;12.50;6.88;;;;;;;;;;5073046;28;20040;-13
2021/03/02 07:04:08;;;;;;;8.98;4.97;;;;;;;;;;5071783;28;20017;-13
2021/03/02 07:06:38;;;;;;;5.63;3.75;;;;;;;;;;5072904;28;20039;-13
2021/03/02 07:09:04;;;;;;;10.52;5.28;;;;;;;;;;5072986;28;20012;-13
2021/03/02 07:11:30;;;;;;;10.20;6.05;;;;;;;;;;5072991;28;20024;-14
2021/03/02 07:13:56;;;;;;;7.50;4.60;;;;;;;;;;5073223;28;20020;-14
2021/03/02 07:16:22;;;;;;;10.25;5.70;;;;;;;;;;5072989;28;20402;-13
2021/03/02 07:18:50;;;;;;;11.95;7.82;;;;;;;;;;5072527;28;20088;-13
2021/03/02 07:21:15;;;;;;;11.70;6.40;;;;;;;;;;5072608;28;20118;-14
2021/03/02 07:23:41;;;;;;;16.10;7.35;;;;;;;;;;5072389;28;20024;-14
2021/03/02 07:26:07;;;;;;;9.60;5.65;;;;;;;;;;5072704;28;20036;-13
2021/03/02 07:28:35;;;;;;;7.68;4.45;;;;;;;;;;5071475;28;20024;-14
2021/03/02 07:31:01;;;;;;;13.20;6.10;;;;;;;;;;5072516;28;20040;-13
2021/03/02 07:33:27;;;;;;;12.45;6.13;;;;;;;;;;4722703;28;10000040;-15
2021/03/02 07:35:57;;;;;;;6.18;3.33;;;;;;;;;;5088762;28;20269;-15
2021/03/02 07:38:23;;;;;;;7.30;4.65;;;;;;;;;;5089605;28;20040;-16
2021/03/02 07:40:54;;;;;;;12.88;7.80;;;;;;;;;;5089130;28;20039;-16
2021/03/02 07:43:28;;;;;;;12.82;7.95;;;;;;;;;;5087929;28;20120;-17
2021/03/02 07:45:55;;;;;;;11.48;7.57;;;;;;;;;;5084177;28;20021;-16
2021/03/02 07:48:28;;;;;;;10.95;6.70;;;;;;;;;;5088565;28;20049;-18
2021/03/02 07:51:13;;;;;;;6.60;3.33;;;;;;;;;;5088712;28;20020;-15
2021/03/02 07:53:38;;;;;;;11.90;5.75;;;;;;;;;;5087677;28;20467;-15
2021/03/02 07:56:30;;;;;;;9.68;5.60;;;;;;;;;;5088440;28;20107;-15
2021/03/02 07:59:04;;;;;;;8.73;5.38;;;;;;;;;;5085620;28;20111;-15
2021/03/02 08:01:31;;;;;;;12.68;5.97;;;;;;;;;;5082406;28;20096;-14
2021/03/02 08:04:15;;;;;;;10.65;5.57;;;;;;;;;;5087195;28;20055;-14
2021/03/02 08:06:41;;;;;;;7.30;3.90;;;;;;;;;;5088449;28;20039;-14
2021/03/02 08:09:25;;;;;;;9.40;5.00;;;;;;;;;;5088230;28;20542;-13
2021/03/02 08:11:52;;;;;;;8.68;5.65;;;;;;;;;;5088527;28;20035;-14
2021/03/02 08:14:17;;;;;;;7.95;4.18;;;;;;;;;;5088692;28;20024;-14
2021/03/02 08:16:58;;;;;;;9.13;6.07;;;;;;;;;;5088564;28;20032;-14
2021/03/02 08:19:30;;;;;;;7.00;4.55;;;;;;;;;;5087318;28;20032;-14
2021/03/02 08:21:55;;;;;;;4.72;2.33;;;;;;;;;;5087955;28;20081;-13
2021/03/02 08:24:39;;;;;;;6.88;3.97;;;;;;;;;;5089019;28;20028;-14
2021/03/02 08:27:05;;;;;;;5.38;3.53;;;;;;;;;;5088730;28;20054;-14
2021/03/02 08:29:31;;;;;;;5.07;3.35;;;;;;;;;;5087400;28;20066;-14
2021/03/02 08:31:56;;;;;;;1.00;0.80;;;;;;;;;;5088833;28;20905;-14
2021/03/02 08:34:22;;;;;;;8.63;4.25;;;;;;;;;;5088515;28;20016;-14
2021/03/02 08:36:49;;;;;;;8.25;4.90;;;;;;;;;;5088043;28;20112;-14
2021/03/02 08:39:15;;;;;;;2.50;1.70;;;;;;;;;;5087408;28;20024;-14
2021/03/02 08:41:45;;;;;;;3.03;1.90;;;;;;;;;;5088157;28;20442;-14
2021/03/02 08:44:20;;;;;;;6.45;3.10;;;;;;;;;;5088123;28;20017;-14
2021/03/02 08:46:50;;;;;;;6.63;3.55;;;;;;;;;;5088486;28;20050;-14
2021/03/02 08:49:16;;;;;;;6.30;3.40;;;;;;;;;;5088095;28;20031;-14
2021/03/02 08:51:42;;;;;;;7.65;4.70;;;;;;;;;;5088511;28;20439;-14
2021/03/02 08:54:07;;;;;;;8.60;3.78;;;;;;;;;;5086856;28;20027;-13
2021/03/02 08:56:33;;;;;;;7.97;3.63;;;;;;;;;;5088336;28;20028;-13
2021/03/02 08:59:02;;;;;;;5.57;3.33;;;;;;;;;;5088608;28;20453;-13
2021/03/02 09:01:28;;;;;;;6.20;3.05;;;;;;;;;;5088425;28;20608;-14
2021/03/02 09:04:05;;;;;;;5.78;3.65;;;;;;;;;;5088359;28;20067;-14
2021/03/02 09:06:31;;;;;;;6.22;3.78;;;;;;;;;;5088612;28;20028;-14
2021/03/02 09:08:56;;;;;;;5.57;3.50;;;;;;;;;;5089944;28;20386;-13
2021/03/02 09:11:34;;;;;;;6.70;3.15;;;;;;;;;;5092516;28;20395;-14
2021/03/02 09:14:01;;;;;;;7.82;3.92;;;;;;;;;;5092270;28;20039;-15
2021/03/02 09:16:34;;;;;;;5.97;4.15;;;;;;;;;;5092375;28;20020;-14
2021/03/02 09:19:15;;;;;;;8.85;4.57;;;;;;;;;;5091770;28;20132;-15
2021/03/02 09:21:50;;;;;;;9.43;3.35;;;;;;;;;;5090984;28;20140;-14
2021/03/02 09:24:19;;;;;;;7.40;4.85;;;;;;;;;;5091555;28;20032;-14
2021/03/02 09:26:50;;;;;;;8.05;4.63;;;;;;;;;;5091549;28;20028;-14
2021/03/02 09:29:16;;;;;;;10.35;5.15;;;;;;;;;;5091511;28;20039;-14
2021/03/02 09:31:41;;;;;;;4.15;2.83;;;;;;;;;;5089714;28;20024;-14
2021/03/02 09:34:07;;;;;;;9.25;4.07;;;;;;;;;;5090475;28;20032;-13
2021/03/02 09:36:32;;;;;;;4.07;3.17;;;;;;;;;;5091018;28;20024;-15
2021/03/02 09:38:58;;;;;;;5.97;3.08;;;;;;;;;;5091558;28;20106;-14
2021/03/02 09:41:34;;;;;;;7.35;3.33;;;;;;;;;;5091076;28;20111;-14
2021/03/02 09:44:34;;;;;;;10.02;4.85;;;;;;;;;;5091434;28;20063;-13
2021/03/02 09:47:02;;;;;;;5.53;2.42;;;;;;;;;;5028299;28;20041;-14
2021/03/02 09:49:44;;;;;;;6.57;3.70;;;;;;;;;;5078794;28;20024;-14
2021/03/02 09:52:29;;;;;;;5.30;3.25;;;;;;;;;;5091352;28;20040;-14
2021/03/02 09:55:07;;;;;;;7.57;3.75;;;;;;;;;;5090819;28;20063;-14
2021/03/02 09:57:32;;;;;;;7.57;4.80;;;;;;;;;;5090679;28;20016;-14
2021/03/02 09:59:57;;;;;;;7.32;4.32;;;;;;;;;;5091228;28;20387;-14
2021/03/02 10:02:23;;;;;;;8.15;3.78;;;;;;;;;;5090724;28;20044;-13
2021/03/02 10:04:49;;;;;;;8.85;5.28;;;;;;;;;;5091152;28;20020;-13
2021/03/02 10:07:14;;;;;;;9.65;5.30;;;;;;;;;;5091163;28;20020;-14
2021/03/02 10:09:47;;;;;;;5.70;3.33;;;;;;;;;;5089038;28;20095;-14
2021/03/02 10:12:14;;;;;;;9.23;4.80;;;;;;;;;;5090832;28;20048;-13
2021/03/02 10:14:40;;;;;;;8.93;3.85;;;;;;;;;;5090405;28;20016;-14
2021/03/02 10:17:06;;;;;;;2.80;1.55;;;;;;;;;;5090612;28;20020;-14
2021/03/02 10:19:32;;;;;;;5.88;3.38;;;;;;;;;;5088710;28;20463;-14
2021/03/02 10:21:59;;;;;;;5.57;4.13;;;;;;;;;;5089828;28;20047;-14
2021/03/02 10:24:26;;;;;;;6.80;3.45;;;;;;;;;;5088949;28;20039;-14
2021/03/02 10:26:55;;;;;;;6.57;3.25;;;;;;;;;;5090716;28;20461;-14
2021/03/02 10:29:22;;;;;;;9.13;4.90;;;;;;;;;;5090662;28;20023;-15
2021/03/02 10:31:49;;;;;;;7.68;3.67;;;;;;;;;;5090115;28;20039;-13
2021/03/02 10:34:14;;;;;;;5.13;3.10;;;;;;;;;;5083982;28;20008;-14
2021/03/02 10:36:41;;;;;;;8.57;4.30;;;;;;;;;;5089631;28;20498;-14
2021/03/02 10:39:08;;;;;;;5.00;3.42;;;;;;;;;;5090379;28;20102;-14
2021/03/02 10:41:34;;;;;;;9.60;3.67;;;;;;;;;;5090067;28;20508;-15
2021/03/02 10:43:59;;;;;;;6.30;4.07;;;;;;;;;;5089771;28;20028;-15
2021/03/02 10:46:25;;;;;;;3.53;2.35;;;;;;;;;;5090168;28;20115;-14
2021/03/02 10:48:51;;;;;;;4.47;3.05;;;;;;;;;;5089902;28;20009;-15
2021/03/02 10:51:18;;;;;;;3.83;2.55;;;;;;;;;;5089982;28;20027;-15
2021/03/02 10:53:44;;;;;;;4.00;2.40;;;;;;;;;;5089732;28;20024;-14
2021/03/02 10:56:10;;;;;;;4.15;1.73;;;;;;;;;;5089671;28;20469;-14
2021/03/02 10:58:36;;;;;;;6.53;3.08;;;;;;;;;;5089480;28;20026;-13
2021/03/02 11:01:03;;;;;;;6.15;2.15;;;;;;;;;;5089242;28;20081;-13
2021/03/02 11:03:29;;;;;;;4.05;2.45;;;;;;;;;;5089716;28;20111;-13
2021/03/02 11:05:55;;;;;;;4.32;2.25;;;;;;;;;;5089515;28;20111;-13
2021/03/02 11:08:21;;;;;;;3.53;2.28;;;;;;;;;;5089211;28;20453;-14
2021/03/02 11:10:47;;;;;;;4.78;2.90;;;;;;;;;;5089619;28;20020;-13
2021/03/02 11:13:13;;;;;;;34.75;17.88;;;;;;;;;;5089659;28;20020;-13
2021/03/02 11:15:39;;;;;;;5.22;2.78;;;;;;;;;;5089426;28;20028;-14
2021/03/02 11:18:05;;;;;;;3.90;2.22;;;;;;;;;;5082358;28;20035;-14
2021/03/02 11:20:31;;;;;;;5.18;2.55;;;;;;;;;;5088753;28;20023;-14
2021/03/02 11:22:57;;;;;;;3.72;2.38;;;;;;;;;;5089330;28;20044;-14
2021/03/02 11:25:22;;;;;;;3.78;2.33;;;;;;;;;;5087755;28;20077;-13
2021/03/02 11:27:50;;;;;;;7.47;2.50;;;;;;;;;;5089765;28;20066;-14
2021/03/02 11:30:15;;;;;;;4.45;2.78;;;;;;;;;;5089161;28;20028;-15
2021/03/02 11:32:41;;;;;;;5.22;2.83;;;;;;;;;;5085885;28;20021;-14
2021/03/02 11:35:07;;;;;;;3.70;2.10;;;;;;;;;;5089022;28;20032;-15
2021/03/02 11:37:34;;;;;;;3.55;2.35;;;;;;;;;;5089464;28;20390;-14
2021/03/02 11:40:00;;;;;;;4.28;2.00;;;;;;;;;;5087358;28;20066;-15
2021/03/02 11:42:25;;;;;;;3.05;2.47;;;;;;;;;;5088576;28;20028;-14
2021/03/02 11:44:51;;;;;;;4.00;2.20;;;;;;;;;;5088699;28;20035;-14
2021/03/02 11:47:17;;;;;;;3.30;2.50;;;;;;;;;;5088749;28;20429;-13
2021/03/02 11:49:42;;;;;;;6.30;2.92;;;;;;;;;;5088373;28;20487;-14
2021/03/02 11:52:07;;;;;;;5.07;2.75;;;;;;;;;;5088766;28;20024;-14
2021/03/02 11:54:33;;;;;;;4.18;2.13;;;;;;;;;;5089051;28;20662;-14
2021/03/02 11:56:58;;;;;;;4.35;3.17;;;;;;;;;;5088588;28;20024;-13
2021/03/02 11:59:24;;;;;;;3.03;1.85;;;;;;;;;;5089408;28;20028;-13
2021/03/02 12:01:50;;;;;;;3.70;2.45;;;;;;;;;;5088974;28;20558;-14
2021/03/02 12:04:15;;;;;;;3.75;2.60;;;;;;;;;;5089333;28;20028;-15
2021/03/02 12:06:41;;;;;;;3.95;2.53;;;;;;;;;;5088595;28;20681;-14
2021/03/02 12:09:06;;;;;;;3.72;2.15;;;;;;;;;;5088550;28;20026;-14
2021/03/02 12:11:32;;;;;;;4.25;2.15;;;;;;;;;;5089304;28;20028;-13
2021/03/02 12:13:57;;;;;;;4.93;2.70;;;;;;;;;;5089025;28;20490;-13
2021/03/02 12:16:23;;;;;;;3.92;2.22;;;;;;;;;;5089387;28;20028;-14
2021/03/02 12:18:48;;;;;;;3.97;2.63;;;;;;;;;;5088983;28;20641;-14
2021/03/02 12:21:13;;;;;;;4.25;2.33;;;;;;;;;;5088391;28;20052;-14
2021/03/02 12:23:39;;;;;;;5.18;2.42;;;;;;;;;;5088997;28;20064;-14
2021/03/02 12:26:05;;;;;;;2.00;1.80;;;;;;;;;;5089291;28;20020;-14
2021/03/02 12:28:30;;;;;;;4.25;2.85;;;;;;;;;;5089076;28;20105;-12
2021/03/02 12:30:56;;;;;;;4.68;2.10;;;;;;;;;;5088418;28;20486;-18
2021/03/02 12:33:21;;;;;;;2.97;1.25;;;;;;;;;;5078955;28;20037;-14
2021/03/02 12:35:46;;;;;;;2.55;1.55;;;;;;;;;;5068455;28;20012;-14
2021/03/02 12:38:12;;;;;;;5.88;3.10;;;;;;;;;;5068461;28;20051;-15
2021/03/02 12:40:38;;;;;;;3.60;2.00;;;;;;;;;;5068450;28;20024;-14
2021/03/02 12:43:04;;;;;;;7.63;2.42;;;;;;;;;;5070646;28;20130;-13
2021/03/02 12:45:29;;;;;;;3.13;1.80;;;;;;;;;;5072137;28;20024;-13
2021/03/02 12:47:54;;;;;;;2.47;2.28;;;;;;;;;;5072701;28;20085;-14
2021/03/02 12:50:20;;;;;;;2.45;1.73;;;;;;;;;;5072242;28;20738;-13
2021/03/02 12:52:45;;;;;;;3.95;2.15;;;;;;;;;;5072194;28;20033;-14
2021/03/02 12:55:11;;;;;;;4.15;1.58;;;;;;;;;;5072271;28;20020;-14
2021/03/02 12:57:37;;;;;;;4.72;2.00;;;;;;;;;;5071898;28;20115;-13
2021/03/02 13:00:07;;;;;;;3.15;2.50;;;;;;;;;;5072533;28;20016;-14
2021/03/02 13:02:32;;;;;;;3.78;2.33;;;;;;;;;;5072242;28;20067;-13
2021/03/02 13:04:58;;;;;;;6.40;2.10;;;;;;;;;;5072418;28;20044;-13
2021/03/02 13:07:24;;;;;;;3.75;2.28;;;;;;;;;;5072285;28;20086;-14
2021/03/02 13:09:49;;;;;;;4.45;2.08;;;;;;;;;;5071687;28;20028;-13
2021/03/02 13:12:14;;;;;;;3.28;1.90;;;;;;;;;;5072090;28;20072;-15
2021/03/02 13:14:40;;;;;;;3.90;2.38;;;;;;;;;;5072097;28;20100;-14
2021/03/02 13:17:06;;;;;;;2.25;1.17;;;;;;;;;;5070443;28;20604;-17
2021/03/02 13:19:32;;;;;;;2.28;1.73;;;;;;;;;;5071753;28;20009;-14
2021/03/02 13:21:58;;;;;;;2.33;1.60;;;;;;;;;;5071026;28;20581;-13
2021/03/02 13:24:23;;;;;;;3.22;1.95;;;;;;;;;;5071870;28;20025;-14
2021/03/02 13:26:49;;;;;;;3.15;1.85;;;;;;;;;;5071852;28;20071;-14
2021/03/02 13:29:16;;;;;;;2.22;1.77;;;;;;;;;;5080519;28;20050;-14
2021/03/02 13:31:44;;;;;;;3.03;1.90;;;;;;;;;;5091681;28;20028;-15
2021/03/02 13:34:13;;;;;;;3.03;1.70;;;;;;;;;;5091326;28;20081;-15
2021/03/02 13:36:40;;;;;;;4.68;1.95;;;;;;;;;;5091756;28;20020;-14
2021/03/02 13:39:06;;;;;;;5.03;2.00;;;;;;;;;;5090117;28;20083;-15
2021/03/02 13:41:31;;;;;;;4.60;1.73;;;;;;;;;;5089861;28;20518;-14
2021/03/02 13:43:58;;;;;;;3.78;1.90;;;;;;;;;;5091120;28;20090;-15
2021/03/02 13:46:24;;;;;;;2.60;1.55;;;;;;;;;;5091034;28;20099;-14
2021/03/02 13:48:49;;;;;;;3.50;2.35;;;;;;;;;;5091407;28;20123;-14
2021/03/02 13:51:16;;;;;;;3.25;2.00;;;;;;;;;;5091460;28;20508;-14
2021/03/02 13:53:41;;;;;;;2.45;1.58;;;;;;;;;;5083547;28;20501;-15
2021/03/02 13:56:07;;;;;;;3.58;1.55;;;;;;;;;;5091232;28;20056;-15
2021/03/02 13:58:32;;;;;;;3.58;2.00;;;;;;;;;;5091024;28;20107;-15
2021/03/02 14:00:57;;;;;;;2.58;2.05;;;;;;;;;;5091162;28;20107;-15
2021/03/02 14:03:24;;;;;;;2.55;1.30;;;;;;;;;;5090942;28;20375;-15
2021/03/02 14:05:50;;;;;;;3.05;2.00;;;;;;;;;;5090878;28;20032;-15
2021/03/02 14:08:19;;;;;;;3.50;2.22;;;;;;;;;;5090766;28;20106;-14
2021/03/02 14:10:45;;;;;;;3.15;1.83;;;;;;;;;;5090399;28;20012;-14
2021/03/02 14:13:12;;;;;;;2.63;1.80;;;;;;;;;;5090713;28;20051;-15
2021/03/02 14:15:37;;;;;;;2.35;1.63;;;;;;;;;;5090931;28;20334;-15
2021/03/02 14:18:03;;;;;;;4.95;2.58;;;;;;;;;;5090325;28;20016;-14
2021/03/02 14:20:29;;;;;;;4.68;1.67;;;;;;;;;;5090229;28;20024;-14
2021/03/02 14:22:55;;;;;;;3.28;1.83;;;;;;;;;;5089308;28;20047;-14
2021/03/02 14:25:21;;;;;;;2.35;1.73;;;;;;;;;;5089083;28;20032;-14
2021/03/02 14:27:47;;;;;;;4.05;2.45;;;;;;;;;;5089820;28;20052;-14
2021/03/02 14:30:14;;;;;;;5.80;2.08;;;;;;;;;;5085999;28;20485;-13
2021/03/02 14:32:40;;;;;;;2.22;1.88;;;;;;;;;;5089413;28;20050;-13
2021/03/02 14:35:07;;;;;;;4.22;2.15;;;;;;;;;;5089187;28;20075;-14
2021/03/02 14:37:32;;;;;;;3.15;1.70;;;;;;;;;;5090007;28;20055;-13
2021/03/02 14:39:58;;;;;;;13.13;6.40;;;;;;;;;;5090439;28;20101;-13